CheckWX is a tool to help pilots better visualize weather data.  It is not intended as a substitute for an official pre-flight weather briefing.

18:12:39 UTC

KDLO METAR
Delano Municipal Airport
Delano, California, USA
Current

18 mins ago

KDLO 251755Z AUTO 17006KT 10SM CLR 13/07 A3017 RMK AO2 T01320066 10132 20071
Observed
Jan-25 @ 17:55 UTC
Wind
  • 170° at 6 KTS
Visibility
10 SM
Flight Rules
VFR
Cloud Levels
  • Clear skies
Temperature
13°C / 55°F
Dewpoint
C / 45°F
Humidity
67%
Altimeter
30.17" Hg
Pressure
1021.72 hPa
Previous

38 mins ago

KDLO 251735Z AUTO 18003KT 10SM SCT036 13/07 A3017 RMK AO2 T01260069
Observed
Jan-25 @ 17:35 UTC
Wind
  • 180° at 3 KTS
Visibility
10 SM
Flight Rules
VFR
Cloud Levels
  • Scattered at 3,600' AGL
Temperature
13°C / 55°F
Dewpoint
C / 45°F
Humidity
67%
Altimeter
30.17" Hg
Pressure
1021.72 hPa
Previous

58 mins ago

KDLO 251715Z AUTO 17003KT 10SM SCT036 12/07 A3018 RMK AO2 T01160070
Observed
Jan-25 @ 17:15 UTC
Wind
  • 170° at 3 KTS
Visibility
10 SM
Flight Rules
VFR
Cloud Levels
  • Scattered at 3,600' AGL
Temperature
12°C / 54°F
Dewpoint
C / 45°F
Humidity
72%
Altimeter
30.18" Hg
Pressure
1022.02 hPa